Berta — V2BQ6 — position and weather

sailwx.info

Track history (hours):
 
Tides and Currents Weather Stations Pressure Air Temp Water Temp Dewpoint Dewpoint Depression Visibility Wind Speed Wind Dir Waves Ship Positions

Berta

Last reported at 2016-May-03 23:33 UTC. Time now 2016-May-03 23:58 UTC.
Position N 58°39' E 004°51'.

Length 118 m; draft 6.1 m.

Type: Cargo ship. MMSI: 304586000.

Date/timePositionNaut miles runAvg speedWind from/ knotsBaromVisibWave heightAir tempDewpointWater temp
2016-May-03 23:33N 58°39' E 004°51'1212.3
2016-May-03 22:33N 58°31' E 005°08'1312.5
2016-May-03 21:30N 58°21' E 005°24'17913.3
2016-May-03 08:04N 55°27' E 006°38'713.0
2016-May-03 07:33N 55°20' E 006°41'1313.0
2016-May-03 06:33N 55°08' E 006°46'1312.6
2016-May-03 05:33N 54°56' E 006°53'1412.6
2016-May-03 04:29N 54°44' E 007°05'1112.5
2016-May-03 03:33N 54°34' E 007°14'1312.6
2016-May-03 02:33N 54°23' E 007°24'1313.4
2016-May-03 01:33N 54°11' E 007°37'1414.0
2016-May-03 00:33N 54°04' E 007°58'1615.5
2016-May-02 23:33N 53°59' E 008°23'1515.5
2016-May-02 22:33N 53°51' E 008°45'1413.8
2016-May-02 21:33N 53°53' E 009°09'1111.5
2016-May-02 20:34N 53°46' E 009°24'1010.3
2016-May-02 19:33N 53°37' E 009°33'10 9.7
2016-May-02 18:34N 53°33' E 009°48'4 4.2
2016-May-02 17:33N 53°32' E 009°55'0 0.0
2016-May-02 16:33N 53°32' E 009°55'0 0.0
2016-May-02 15:33N 53°32' E 009°55'0 0.0
2016-May-02 14:33N 53°32' E 009°55'0 0.0
2016-May-02 13:33N 53°32' E 009°55'0 0.0
2016-May-02 12:33N 53°32' E 009°55'0 0.0
2016-May-02 11:33N 53°32' E 009°55'2 2.4
2016-May-02 10:33N 53°30' E 009°56'0 0.0
2016-May-02 09:34N 53°30' E 009°56'0 0.0
2016-May-02 08:33N 53°30' E 009°56'0 0.0
2016-May-02 07:33N 53°30' E 009°56'5 4.7
2016-May-02 06:33N 53°33' E 009°50'1111.2
2016-May-02 05:33N 53°37' E 009°33'1313.0
2016-May-02 04:34N 53°49' E 009°22'1211.5
2016-May-02 03:33N 53°52' E 009°03'1111.1
2016-May-02 02:33N 53°52' E 008°44'1110.8
2016-May-02 01:33N 53°58' E 008°30'1212.0
2016-May-02 00:33N 53°59' E 008°10'1211.6
2016-May-01 23:33N 54°03' E 007°51'1110.9
2016-May-01 22:33N 54°09' E 007°36'1110.8
2016-May-01 21:33N 54°18' E 007°25'1111.2
2016-May-01 20:33N 54°28' E 007°17'1111.2
2016-May-01 19:33N 54°38' E 007°08'1111.4
2016-May-01 18:33N 54°48' E 006°59'1211.6
2016-May-01 17:33N 54°59' E 006°51'1211.9
2016-May-01 16:33N 55°10' E 006°44'1211.9
2016-May-01 15:33N 55°22' E 006°39'192 9.5
2016-Apr-30 19:21N 58°26' E 005°02'910.9
2016-Apr-30 18:32N 58°32' E 004°51'1111.1
2016-Apr-30 17:33N 58°40' E 004°36'313 6.7
2016-Apr-28 18:32N 63°24' E 009°10'5 0.6
2016-Apr-28 10:20N 63°19' E 009°09'6 7.6
2016-Apr-28 09:30N 63°25' E 009°08'30511.7
2016-Apr-27 07:20N 58°52' E 004°28'1012.5
2016-Apr-27 06:33N 58°45' E 004°41'1312.8
2016-Apr-27 05:33N 58°36' E 004°58'1312.6
2016-Apr-27 04:33N 58°26' E 005°14'1312.2
2016-Apr-27 03:29N 58°15' E 005°28'17110.7
2016-Apr-26 11:33N 55°29' E 006°36'1110.8
2016-Apr-26 10:33N 55°18' E 006°42'1111.5
2016-Apr-26 09:33N 55°07' E 006°46'1212.3
2016-Apr-26 08:33N 54°56' E 006°54'1312.8
2016-Apr-26 07:33N 54°44' E 007°04'1413.5
2016-Apr-26 06:33N 54°32' E 007°15'1414.0
2016-Apr-26 05:34N 54°20' E 007°27'1414.0
2016-Apr-26 04:34N 54°10' E 007°42'1414.0
2016-Apr-26 03:33N 54°02' E 008°03'1313.5
2016-Apr-26 02:34N 53°59' E 008°25'1111.3
2016-Apr-26 01:33N 53°54' E 008°42'10 9.7
2016-Apr-26 00:33N 53°51' E 008°58'1110.5
2016-Apr-25 23:33N 53°53' E 009°15'1413.8
2016-Apr-25 22:34N 53°42' E 009°30'1313.4
2016-Apr-25 21:34N 53°33' E 009°48'4 4.2
2016-Apr-25 20:34N 53°32' E 009°54'0 0.0
2016-Apr-25 19:34N 53°32' E 009°54'0 0.0
2016-Apr-25 18:34N 53°32' E 009°55'0 0.0
2016-Apr-25 17:34N 53°32' E 009°55'3 2.5
2016-Apr-25 16:33N 53°30' E 009°56'0 0.0
2016-Apr-25 15:34N 53°30' E 009°56'0 0.0
2016-Apr-25 14:34N 53°30' E 009°56'0 0.0
2016-Apr-25 13:33N 53°30' E 009°56'0 0.0
2016-Apr-25 12:33N 53°30' E 009°56'0 0.0
2016-Apr-25 11:33N 53°30' E 009°56'0 0.0
2016-Apr-25 10:34N 53°30' E 009°56'0 0.0
2016-Apr-25 09:34N 53°30' E 009°56'5 5.5
2016-Apr-25 08:34N 53°33' E 009°49'9 8.9
2016-Apr-25 07:33N 53°36' E 009°35'9 9.1
2016-Apr-25 06:34N 53°44' E 009°26'9 8.8
2016-Apr-25 05:33N 53°51' E 009°18'1110.7
2016-Apr-25 04:33N 53°51' E 008°60'1010.4
2016-Apr-25 03:33N 53°53' E 008°43'1111.1
2016-Apr-25 02:34N 53°59' E 008°27'1212.0
2016-Apr-25 01:33N 53°59' E 008°06'1312.8
2016-Apr-25 00:33N 54°05' E 007°47'1312.8
2016-Apr-24 23:33N 54°13' E 007°30'1313.1
2016-Apr-24 22:33N 54°25' E 007°20'1313.1
2016-Apr-24 21:33N 54°37' E 007°10'1312.9
2016-Apr-24 20:33N 54°48' E 006°60'1312.6
2016-Apr-24 19:31N 55°00' E 006°49'1212.2
2016-Apr-24 18:33N 55°11' E 006°42'1212.0
2016-Apr-24 17:33N 55°22' E 006°35'19211.9
2016-Apr-24 01:21N 58°27' E 004°56'1012.0
2016-Apr-24 00:33N 58°34' E 004°43'  
Track history (hours):
 
Tides and Currents Weather Stations Pressure Air Temp Water Temp Dewpoint Dewpoint Depression Visibility Wind Speed Wind Dir Waves Ship Positions

Berta

Last reported at 2016-May-03 23:33 UTC. Time now 2016-May-03 23:58 UTC.
Position N 58°39' E 004°51'.

Length 118 m; draft 6.1 m.

Type: Cargo ship. MMSI: 304586000.

Date/timePositionNaut miles runAvg speedWind from/ knotsBaromVisibWave heightAir tempDewpointWater temp
2016-May-03 23:33N 58°39' E 004°51'1212.3
2016-May-03 22:33N 58°31' E 005°08'1312.5
2016-May-03 21:30N 58°21' E 005°24'17913.3
2016-May-03 08:04N 55°27' E 006°38'713.0
2016-May-03 07:33N 55°20' E 006°41'1313.0
2016-May-03 06:33N 55°08' E 006°46'1312.6
2016-May-03 05:33N 54°56' E 006°53'1412.6
2016-May-03 04:29N 54°44' E 007°05'1112.5
2016-May-03 03:33N 54°34' E 007°14'1312.6
2016-May-03 02:33N 54°23' E 007°24'1313.4
2016-May-03 01:33N 54°11' E 007°37'1414.0
2016-May-03 00:33N 54°04' E 007°58'1615.5
2016-May-02 23:33N 53°59' E 008°23'1515.5
2016-May-02 22:33N 53°51' E 008°45'1413.8
2016-May-02 21:33N 53°53' E 009°09'1111.5
2016-May-02 20:34N 53°46' E 009°24'1010.3
2016-May-02 19:33N 53°37' E 009°33'10 9.7
2016-May-02 18:34N 53°33' E 009°48'4 4.2
2016-May-02 17:33N 53°32' E 009°55'0 0.0
2016-May-02 16:33N 53°32' E 009°55'0 0.0
2016-May-02 15:33N 53°32' E 009°55'0 0.0
2016-May-02 14:33N 53°32' E 009°55'0 0.0
2016-May-02 13:33N 53°32' E 009°55'0 0.0
2016-May-02 12:33N 53°32' E 009°55'0 0.0
2016-May-02 11:33N 53°32' E 009°55'2 2.4
2016-May-02 10:33N 53°30' E 009°56'0 0.0
2016-May-02 09:34N 53°30' E 009°56'0 0.0
2016-May-02 08:33N 53°30' E 009°56'0 0.0
2016-May-02 07:33N 53°30' E 009°56'5 4.7
2016-May-02 06:33N 53°33' E 009°50'1111.2
2016-May-02 05:33N 53°37' E 009°33'1313.0
2016-May-02 04:34N 53°49' E 009°22'1211.5
2016-May-02 03:33N 53°52' E 009°03'1111.1
2016-May-02 02:33N 53°52' E 008°44'1110.8
2016-May-02 01:33N 53°58' E 008°30'1212.0
2016-May-02 00:33N 53°59' E 008°10'1211.6
2016-May-01 23:33N 54°03' E 007°51'1110.9
2016-May-01 22:33N 54°09' E 007°36'1110.8
2016-May-01 21:33N 54°18' E 007°25'1111.2
2016-May-01 20:33N 54°28' E 007°17'1111.2
2016-May-01 19:33N 54°38' E 007°08'1111.4
2016-May-01 18:33N 54°48' E 006°59'1211.6
2016-May-01 17:33N 54°59' E 006°51'1211.9
2016-May-01 16:33N 55°10' E 006°44'1211.9
2016-May-01 15:33N 55°22' E 006°39'192 9.5
2016-Apr-30 19:21N 58°26' E 005°02'910.9
2016-Apr-30 18:32N 58°32' E 004°51'1111.1
2016-Apr-30 17:33N 58°40' E 004°36'313 6.7
2016-Apr-28 18:32N 63°24' E 009°10'5 0.6
2016-Apr-28 10:20N 63°19' E 009°09'6 7.6
2016-Apr-28 09:30N 63°25' E 009°08'30511.7
2016-Apr-27 07:20N 58°52' E 004°28'1012.5
2016-Apr-27 06:33N 58°45' E 004°41'1312.8
2016-Apr-27 05:33N 58°36' E 004°58'1312.6
2016-Apr-27 04:33N 58°26' E 005°14'1312.2
2016-Apr-27 03:29N 58°15' E 005°28'17110.7
2016-Apr-26 11:33N 55°29' E 006°36'1110.8
2016-Apr-26 10:33N 55°18' E 006°42'1111.5
2016-Apr-26 09:33N 55°07' E 006°46'1212.3
2016-Apr-26 08:33N 54°56' E 006°54'1312.8
2016-Apr-26 07:33N 54°44' E 007°04'1413.5
2016-Apr-26 06:33N 54°32' E 007°15'1414.0
2016-Apr-26 05:34N 54°20' E 007°27'1414.0
2016-Apr-26 04:34N 54°10' E 007°42'1414.0
2016-Apr-26 03:33N 54°02' E 008°03'1313.5
2016-Apr-26 02:34N 53°59' E 008°25'1111.3
2016-Apr-26 01:33N 53°54' E 008°42'10 9.7
2016-Apr-26 00:33N 53°51' E 008°58'1110.5
2016-Apr-25 23:33N 53°53' E 009°15'1413.8
2016-Apr-25 22:34N 53°42' E 009°30'1313.4
2016-Apr-25 21:34N 53°33' E 009°48'4 4.2
2016-Apr-25 20:34N 53°32' E 009°54'0 0.0
2016-Apr-25 19:34N 53°32' E 009°54'0 0.0
2016-Apr-25 18:34N 53°32' E 009°55'0 0.0
2016-Apr-25 17:34N 53°32' E 009°55'3 2.5
2016-Apr-25 16:33N 53°30' E 009°56'0 0.0
2016-Apr-25 15:34N 53°30' E 009°56'0 0.0
2016-Apr-25 14:34N 53°30' E 009°56'0 0.0
2016-Apr-25 13:33N 53°30' E 009°56'0 0.0
2016-Apr-25 12:33N 53°30' E 009°56'0 0.0
2016-Apr-25 11:33N 53°30' E 009°56'0 0.0
2016-Apr-25 10:34N 53°30' E 009°56'0 0.0
2016-Apr-25 09:34N 53°30' E 009°56'5 5.5
2016-Apr-25 08:34N 53°33' E 009°49'9 8.9
2016-Apr-25 07:33N 53°36' E 009°35'9 9.1
2016-Apr-25 06:34N 53°44' E 009°26'9 8.8
2016-Apr-25 05:33N 53°51' E 009°18'1110.7
2016-Apr-25 04:33N 53°51' E 008°60'1010.4
2016-Apr-25 03:33N 53°53' E 008°43'1111.1
2016-Apr-25 02:34N 53°59' E 008°27'1212.0
2016-Apr-25 01:33N 53°59' E 008°06'1312.8
2016-Apr-25 00:33N 54°05' E 007°47'1312.8
2016-Apr-24 23:33N 54°13' E 007°30'1313.1
2016-Apr-24 22:33N 54°25' E 007°20'1313.1
2016-Apr-24 21:33N 54°37' E 007°10'1312.9
2016-Apr-24 20:33N 54°48' E 006°60'1312.6
2016-Apr-24 19:31N 55°00' E 006°49'1212.2
2016-Apr-24 18:33N 55°11' E 006°42'1212.0
2016-Apr-24 17:33N 55°22' E 006°35'19211.9
2016-Apr-24 01:21N 58°27' E 004°56'1012.0
2016-Apr-24 00:33N 58°34' E 004°43'  

Dump ship's entire track history